KGPT/GPT METAR and TAF weather

Enter ICAO airport designator
Station Type Date Time Source
KGPT METAR 2019/08/24 22:53 UTC NOAA

KGPT 242253Z VRB05KT 10SM CLR 30/23 A2994 RMK AO2 SLP136 T03000233


Station Type Date Time Source
KGPT Decoded METAR 2019/08/24 22:53 UTC NOAA

Station name not available
Aug 24, 2019 - 06:53 PM EDT / 2019.08.24 2253 UTC
Wind: Variable at 6 MPH (5 KT):0
Visibility: 10 mile(s):0
Sky conditions: clear
Temperature: 86.0 F (30.0 C)
Heat index: 93.7 F (34.3 C):1
Dew Point: 73.9 F (23.3 C)
Relative Humidity: 67%
Pressure (altimeter): 29.94 in. Hg (1013 hPa)
ob: KGPT 242253Z VRB05KT 10SM CLR 30/23 A2994 RMK AO2 SLP136 T03000233
cycle: 23

Station Type Date Time Source
KGPT TAF 2019/08/24 18:45 UTC NOAA

TAF KGPT 241741Z 2418/2518 16008KT P6SM FEW035 SCT100
FM250000 20006KT P6SM SCT030 BKN250
FM250700 00000KT P6SM SCT025 BKN250
FM251600 15005KT P6SM SCT025 BKN100

Example: see airport list